sensor_id;sensor_type;location;lat;lon;timestamp;pressure;altitude;pressure_sealevel;temperature;humidity
66681;BME280;53575;51.366;12.350;2023-09-08T00:01:50;100828.53;;;18.04;94.74
66681;BME280;53575;51.366;12.350;2023-09-08T00:04:16;100820.03;;;17.94;95.56
66681;BME280;53575;51.366;12.350;2023-09-08T00:06:41;100818.38;;;17.90;96.14
66681;BME280;53575;51.366;12.350;2023-09-08T00:09:07;100826.94;;;17.98;95.48
66681;BME280;53575;51.366;12.350;2023-09-08T00:11:33;100824.38;;;17.95;95.66
66681;BME280;53575;51.366;12.350;2023-09-08T00:13:59;100828.47;;;17.76;96.64
66681;BME280;53575;51.366;12.350;2023-09-08T00:16:24;100822.31;;;17.75;97.20
66681;BME280;53575;51.366;12.350;2023-09-08T00:18:50;100825.00;;;17.72;98.01
66681;BME280;53575;51.366;12.350;2023-09-08T00:21:15;100813.56;;;17.72;97.70
66681;BME280;53575;51.366;12.350;2023-09-08T00:23:40;100813.56;;;17.72;98.49
66681;BME280;53575;51.366;12.350;2023-09-08T00:26:06;100817.06;;;17.72;98.33
66681;BME280;53575;51.366;12.350;2023-09-08T00:28:31;100814.25;;;17.80;98.01
66681;BME280;53575;51.366;12.350;2023-09-08T00:30:57;100811.94;;;17.66;98.41
66681;BME280;53575;51.366;12.350;2023-09-08T00:33:24;100813.78;;;17.63;98.81
66681;BME280;53575;51.366;12.350;2023-09-08T00:35:50;100814.78;;;17.59;99.96
66681;BME280;53575;51.366;12.350;2023-09-08T00:38:15;100814.91;;;17.56;99.42
66681;BME280;53575;51.366;12.350;2023-09-08T00:40:41;100806.00;;;17.58;99.20
66681;BME280;53575;51.366;12.350;2023-09-08T00:43:07;100806.06;;;17.55;99.24
66681;BME280;53575;51.366;12.350;2023-09-08T00:45:37;100811.50;;;17.50;99.22
66681;BME280;53575;51.366;12.350;2023-09-08T00:48:04;100810.63;;;17.50;99.43
66681;BME280;53575;51.366;12.350;2023-09-08T00:50:29;100815.25;;;17.42;100.00
66681;BME280;53575;51.366;12.350;2023-09-08T00:52:55;100811.81;;;17.38;100.00
66681;BME280;53575;51.366;12.350;2023-09-08T00:55:20;100807.47;;;17.37;100.00
66681;BME280;53575;51.366;12.350;2023-09-08T00:57:45;100807.72;;;17.26;100.00
66681;BME280;53575;51.366;12.350;2023-09-08T01:00:11;100806.16;;;17.19;100.00
66681;BME280;53575;51.366;12.350;2023-09-08T01:02:37;100810.56;;;17.19;100.00
66681;BME280;53575;51.366;12.350;2023-09-08T01:05:03;100808.94;;;17.13;100.00
66681;BME280;53575;51.366;12.350;2023-09-08T01:07:29;100806.34;;;17.12;100.00
66681;BME280;53575;51.366;12.350;2023-09-08T01:09:56;100811.47;;;17.18;100.00
66681;BME280;53575;51.366;12.350;2023-09-08T01:12:22;100809.03;;;17.10;100.00
66681;BME280;53575;51.366;12.350;2023-09-08T01:14:47;100810.97;;;17.03;100.00
66681;BME280;53575;51.366;12.350;2023-09-08T01:17:12;100805.69;;;17.03;100.00
66681;BME280;53575;51.366;12.350;2023-09-08T01:19:38;100804.75;;;17.06;100.00
66681;BME280;53575;51.366;12.350;2023-09-08T01:25:12;100802.06;;;17.08;100.00
66681;BME280;53575;51.366;12.350;2023-09-08T01:27:45;100801.00;;;17.13;100.00
66681;BME280;53575;51.366;12.350;2023-09-08T01:30:12;100799.16;;;17.18;100.00
66681;BME280;53575;51.366;12.350;2023-09-08T01:32:40;100800.31;;;17.07;100.00
66681;BME280;53575;51.366;12.350;2023-09-08T01:35:07;100808.38;;;17.02;100.00
66681;BME280;53575;51.366;12.350;2023-09-08T01:37:33;100798.72;;;16.99;100.00
66681;BME280;53575;51.366;12.350;2023-09-08T01:39:58;100805.94;;;16.93;100.00
66681;BME280;53575;51.366;12.350;2023-09-08T01:42:23;100798.88;;;16.93;100.00
66681;BME280;53575;51.366;12.350;2023-09-08T01:44:49;100798.81;;;16.96;100.00
66681;BME280;53575;51.366;12.350;2023-09-08T01:47:15;100801.03;;;16.77;100.00
66681;BME280;53575;51.366;12.350;2023-09-08T01:49:40;100795.81;;;16.73;100.00
66681;BME280;53575;51.366;12.350;2023-09-08T01:52:05;100799.38;;;16.72;100.00
66681;BME280;53575;51.366;12.350;2023-09-08T01:54:31;100798.38;;;16.77;100.00
66681;BME280;53575;51.366;12.350;2023-09-08T01:56:56;100799.28;;;16.76;100.00
66681;BME280;53575;51.366;12.350;2023-09-08T01:59:22;100790.25;;;16.87;100.00
66681;BME280;53575;51.366;12.350;2023-09-08T02:01:47;100801.69;;;16.86;100.00
66681;BME280;53575;51.366;12.350;2023-09-08T02:04:12;100789.47;;;16.83;100.00
66681;BME280;53575;51.366;12.350;2023-09-08T02:06:38;100796.53;;;16.81;100.00
66681;BME280;53575;51.366;12.350;2023-09-08T02:09:03;100790.50;;;16.76;100.00
66681;BME280;53575;51.366;12.350;2023-09-08T02:11:29;100799.25;;;16.78;100.00
66681;BME280;53575;51.366;12.350;2023-09-08T02:13:54;100795.50;;;16.88;100.00
66681;BME280;53575;51.366;12.350;2023-09-08T02:16:19;100790.44;;;16.79;100.00
66681;BME280;53575;51.366;12.350;2023-09-08T02:18:45;100795.81;;;16.74;100.00
66681;BME280;53575;51.366;12.350;2023-09-08T02:21:11;100795.81;;;16.74;100.00
66681;BME280;53575;51.366;12.350;2023-09-08T02:23:37;100794.94;;;16.74;100.00
66681;BME280;53575;51.366;12.350;2023-09-08T02:26:03;100792.13;;;16.81;100.00
66681;BME280;53575;51.366;12.350;2023-09-08T02:28:28;100795.56;;;16.85;100.00
66681;BME280;53575;51.366;12.350;2023-09-08T02:30:54;100790.34;;;16.82;100.00
66681;BME280;53575;51.366;12.350;2023-09-08T02:33:20;100794.44;;;16.95;100.00
66681;BME280;53575;51.366;12.350;2023-09-08T02:35:45;100792.00;;;16.86;100.00
66681;BME280;53575;51.366;12.350;2023-09-08T02:38:11;100789.66;;;16.75;100.00
66681;BME280;53575;51.366;12.350;2023-09-08T02:40:36;100788.03;;;16.68;100.00
66681;BME280;53575;51.366;12.350;2023-09-08T02:43:02;100791.16;;;16.47;100.00
66681;BME280;53575;51.366;12.350;2023-09-08T02:45:28;100784.16;;;16.46;100.00
66681;BME280;53575;51.366;12.350;2023-09-08T02:47:54;100781.63;;;16.40;100.00
66681;BME280;53575;51.366;12.350;2023-09-08T02:50:19;100777.38;;;16.34;100.00
66681;BME280;53575;51.366;12.350;2023-09-08T02:52:45;100778.19;;;16.36;100.00
66681;BME280;53575;51.366;12.350;2023-09-08T02:55:11;100783.47;;;16.36;100.00
66681;BME280;53575;51.366;12.350;2023-09-08T02:57:38;100784.44;;;16.33;100.00
66681;BME280;53575;51.366;12.350;2023-09-08T03:00:04;100780.66;;;16.45;100.00
66681;BME280;53575;51.366;12.350;2023-09-08T03:02:30;100789.66;;;16.35;100.00
66681;BME280;53575;51.366;12.350;2023-09-08T03:04:56;100784.16;;;16.44;100.00
66681;BME280;53575;51.366;12.350;2023-09-08T03:07:22;100789.50;;;16.43;100.00
66681;BME280;53575;51.366;12.350;2023-09-08T03:09:47;100792.41;;;16.30;100.00
66681;BME280;53575;51.366;12.350;2023-09-08T03:12:13;100778.41;;;16.27;100.00
66681;BME280;53575;51.366;12.350;2023-09-08T03:14:38;100787.06;;;16.33;100.00
66681;BME280;53575;51.366;12.350;2023-09-08T03:17:04;100786.81;;;16.44;100.00
66681;BME280;53575;51.366;12.350;2023-09-08T03:19:30;100780.72;;;16.42;100.00
66681;BME280;53575;51.366;12.350;2023-09-08T03:21:55;100777.16;;;16.45;100.00
66681;BME280;53575;51.366;12.350;2023-09-08T03:24:20;100786.06;;;16.39;100.00
66681;BME280;53575;51.366;12.350;2023-09-08T03:26:46;100776.06;;;16.52;100.00
66681;BME280;53575;51.366;12.350;2023-09-08T03:29:11;100784.34;;;16.37;100.00
66681;BME280;53575;51.366;12.350;2023-09-08T03:31:37;100786.28;;;16.30;100.00
66681;BME280;53575;51.366;12.350;2023-09-08T03:34:02;100780.22;;;16.25;100.00
66681;BME280;53575;51.366;12.350;2023-09-08T03:36:27;100774.41;;;16.09;100.00
66681;BME280;53575;51.366;12.350;2023-09-08T03:38:53;100780.63;;;15.62;100.00
66681;BME280;53575;51.366;12.350;2023-09-08T03:41:18;100781.31;;;15.71;100.00
66681;BME280;53575;51.366;12.350;2023-09-08T03:43:44;100773.22;;;15.82;100.00
66681;BME280;53575;51.366;12.350;2023-09-08T03:46:09;100778.44;;;15.85;100.00
66681;BME280;53575;51.366;12.350;2023-09-08T03:48:34;100780.16;;;15.86;100.00
66681;BME280;53575;51.366;12.350;2023-09-08T03:51:00;100780.59;;;15.63;100.00
66681;BME280;53575;51.366;12.350;2023-09-08T03:53:25;100775.25;;;15.68;100.00
66681;BME280;53575;51.366;12.350;2023-09-08T03:55:51;100782.28;;;15.67;100.00
66681;BME280;53575;51.366;12.350;2023-09-08T03:58:16;100776.69;;;15.84;100.00
66681;BME280;53575;51.366;12.350;2023-09-08T04:00:42;100773.75;;;15.98;100.00
66681;BME280;53575;51.366;12.350;2023-09-08T04:03:08;100773.19;;;15.83;100.00
66681;BME280;53575;51.366;12.350;2023-09-08T04:05:34;100774.03;;;15.86;100.00
66681;BME280;53575;51.366;12.350;2023-09-08T04:07:59;100774.06;;;15.82;100.00
66681;BME280;53575;51.366;12.350;2023-09-08T04:10:25;100771.69;;;15.70;100.00
66681;BME280;53575;51.366;12.350;2023-09-08T04:12:50;100771.59;;;15.75;100.00
66681;BME280;53575;51.366;12.350;2023-09-08T04:15:16;100766.16;;;15.84;100.00
66681;BME280;53575;51.366;12.350;2023-09-08T04:17:41;100771.66;;;15.73;100.00
66681;BME280;53575;51.366;12.350;2023-09-08T04:20:07;100762.06;;;15.69;100.00
66681;BME280;53575;51.366;12.350;2023-09-08T04:22:33;100773.69;;;15.57;100.00
66681;BME280;53575;51.366;12.350;2023-09-08T04:25:00;100765.13;;;15.91;100.00
66681;BME280;53575;51.366;12.350;2023-09-08T04:27:25;100764.38;;;15.84;100.00
66681;BME280;53575;51.366;12.350;2023-09-08T04:29:51;100758.56;;;15.67;100.00
66681;BME280;53575;51.366;12.350;2023-09-08T04:32:16;100763.84;;;15.69;100.00
66681;BME280;53575;51.366;12.350;2023-09-08T04:34:42;100766.38;;;15.73;100.00
66681;BME280;53575;51.366;12.350;2023-09-08T04:37:08;100769.28;;;15.56;100.00
66681;BME280;53575;51.366;12.350;2023-09-08T04:39:34;100764.16;;;15.49;100.00
66681;BME280;53575;51.366;12.350;2023-09-08T04:42:01;100764.97;;;15.52;100.00
66681;BME280;53575;51.366;12.350;2023-09-08T04:44:26;100774.50;;;15.61;100.00
66681;BME280;53575;51.366;12.350;2023-09-08T04:46:53;100765.78;;;15.57;100.00
66681;BME280;53575;51.366;12.350;2023-09-08T04:49:19;100768.53;;;15.51;100.00
66681;BME280;53575;51.366;12.350;2023-09-08T04:51:45;100768.47;;;15.54;100.00
66681;BME280;53575;51.366;12.350;2023-09-08T04:54:10;100762.81;;;15.76;100.00
66681;BME280;53575;51.366;12.350;2023-09-08T04:56:36;100769.50;;;15.92;100.00
66681;BME280;53575;51.366;12.350;2023-09-08T04:59:01;100771.50;;;15.81;100.00
66681;BME280;53575;51.366;12.350;2023-09-08T05:01:27;100769.19;;;15.63;100.00
66681;BME280;53575;51.366;12.350;2023-09-08T05:03:54;100771.13;;;15.53;100.00
66681;BME280;53575;51.366;12.350;2023-09-08T05:06:20;100773.78;;;15.51;100.00
66681;BME280;53575;51.366;12.350;2023-09-08T05:08:46;100776.28;;;15.59;100.00
66681;BME280;53575;51.366;12.350;2023-09-08T05:11:11;100778.19;;;15.51;100.00
66681;BME280;53575;51.366;12.350;2023-09-08T05:13:36;100774.44;;;15.63;100.00
66681;BME280;53575;51.366;12.350;2023-09-08T05:16:02;100778.84;;;15.62;100.00
66681;BME280;53575;51.366;12.350;2023-09-08T05:18:39;100783.94;;;15.73;100.00
66681;BME280;53575;51.366;12.350;2023-09-08T05:21:05;100780.56;;;15.65;100.00
66681;BME280;53575;51.366;12.350;2023-09-08T05:23:30;100773.53;;;15.64;100.00
66681;BME280;53575;51.366;12.350;2023-09-08T05:25:56;100784.13;;;15.62;100.00
66681;BME280;53575;51.366;12.350;2023-09-08T05:28:21;100774.34;;;15.70;100.00
66681;BME280;53575;51.366;12.350;2023-09-08T05:30:47;100782.34;;;15.66;100.00
66681;BME280;53575;51.366;12.350;2023-09-08T05:33:12;100779.41;;;15.81;100.00
66681;BME280;53575;51.366;12.350;2023-09-08T05:35:38;100784.75;;;15.76;100.00
66681;BME280;53575;51.366;12.350;2023-09-08T05:38:04;100778.44;;;15.85;100.00
66681;BME280;53575;51.366;12.350;2023-09-08T05:40:30;100784.66;;;15.81;100.00
66681;BME280;53575;51.366;12.350;2023-09-08T05:42:55;100777.56;;;15.83;100.00
66681;BME280;53575;51.366;12.350;2023-09-08T05:45:23;100777.41;;;15.92;100.00
66681;BME280;53575;51.366;12.350;2023-09-08T05:47:51;100779.25;;;15.87;100.00
66681;BME280;53575;51.366;12.350;2023-09-08T05:50:16;100781.81;;;15.90;100.00
66681;BME280;53575;51.366;12.350;2023-09-08T05:52:43;100784.44;;;15.92;100.00
66681;BME280;53575;51.366;12.350;2023-09-08T05:55:08;100781.66;;;15.99;100.00
66681;BME280;53575;51.366;12.350;2023-09-08T05:57:34;100778.97;;;16.01;100.00
66681;BME280;53575;51.366;12.350;2023-09-08T06:00:00;100783.38;;;16.00;100.00
66681;BME280;53575;51.366;12.350;2023-09-08T06:02:25;100778.84;;;16.07;100.00
66681;BME280;53575;51.366;12.350;2023-09-08T06:04:51;100777.09;;;16.07;100.00
66681;BME280;53575;51.366;12.350;2023-09-08T06:07:16;100779.56;;;16.14;100.00
66681;BME280;53575;51.366;12.350;2023-09-08T06:09:42;100775.97;;;16.18;100.00
66681;BME280;53575;51.366;12.350;2023-09-08T06:12:07;100775.97;;;16.18;100.00
66681;BME280;53575;51.366;12.350;2023-09-08T06:14:32;100781.19;;;16.21;100.00
66681;BME280;53575;51.366;12.350;2023-09-08T06:16:58;100777.66;;;16.22;100.00
66681;BME280;53575;51.366;12.350;2023-09-08T06:19:23;100776.75;;;16.21;100.00
66681;BME280;53575;51.366;12.350;2023-09-08T06:21:49;100777.50;;;16.28;100.00
66681;BME280;53575;51.366;12.350;2023-09-08T06:24:14;100775.44;;;16.41;100.00
66681;BME280;53575;51.366;12.350;2023-09-08T06:26:39;100778.09;;;16.41;100.00
66681;BME280;53575;51.366;12.350;2023-09-08T06:29:05;100772.72;;;16.45;100.00
66681;BME280;53575;51.366;12.350;2023-09-08T06:31:30;100777.91;;;16.50;100.00
66681;BME280;53575;51.366;12.350;2023-09-08T06:33:56;100771.78;;;16.48;100.00
66681;BME280;53575;51.366;12.350;2023-09-08T06:36:23;100765.53;;;16.52;100.00
66681;BME280;53575;51.366;12.350;2023-09-08T06:38:48;100772.50;;;16.54;100.00
66681;BME280;53575;51.366;12.350;2023-09-08T06:41:13;100774.16;;;16.60;100.00
66681;BME280;53575;51.366;12.350;2023-09-08T06:43:39;100768.72;;;16.66;100.00
66681;BME280;53575;51.366;12.350;2023-09-08T06:46:04;100773.72;;;16.78;100.00
66681;BME280;53575;51.366;12.350;2023-09-08T06:48:30;100768.50;;;16.77;100.00
66681;BME280;53575;51.366;12.350;2023-09-08T06:50:56;100780.56;;;16.87;100.00
66681;BME280;53575;51.366;12.350;2023-09-08T06:53:22;100770.75;;;16.92;100.00
66681;BME280;53575;51.366;12.350;2023-09-08T06:55:47;100774.22;;;16.94;100.00
66681;BME280;53575;51.366;12.350;2023-09-08T06:58:13;100776.56;;;17.05;100.00
66681;BME280;53575;51.366;12.350;2023-09-08T07:00:40;100777.41;;;17.07;100.00
66681;BME280;53575;51.366;12.350;2023-09-08T07:03:05;100781.72;;;17.11;100.00
66681;BME280;53575;51.366;12.350;2023-09-08T07:05:31;100783.13;;;17.24;100.00
66681;BME280;53575;51.366;12.350;2023-09-08T07:07:56;100781.97;;;17.36;100.00
66681;BME280;53575;51.366;12.350;2023-09-08T07:10:22;100782.63;;;17.44;100.00
66681;BME280;53575;51.366;12.350;2023-09-08T07:12:47;100776.34;;;17.48;100.00
66681;BME280;53575;51.366;12.350;2023-09-08T07:15:13;100783.19;;;17.56;100.00
66681;BME280;53575;51.366;12.350;2023-09-08T07:17:39;100780.34;;;17.62;100.00
66681;BME280;53575;51.366;12.350;2023-09-08T07:20:05;100779.94;;;17.78;100.00
66681;BME280;53575;51.366;12.350;2023-09-08T07:22:31;100774.50;;;17.83;100.00
66681;BME280;53575;51.366;12.350;2023-09-08T07:24:56;100775.16;;;17.91;100.00
66681;BME280;53575;51.366;12.350;2023-09-08T07:27:22;100776.63;;;18.01;100.00
66681;BME280;53575;51.366;12.350;2023-09-08T07:29:47;100779.03;;;18.09;100.00
66681;BME280;53575;51.366;12.350;2023-09-08T07:32:15;100777.84;;;18.19;100.00
66681;BME280;53575;51.366;12.350;2023-09-08T07:34:41;100778.47;;;18.27;100.00
66681;BME280;53575;51.366;12.350;2023-09-08T07:37:07;100775.66;;;18.34;100.00
66681;BME280;53575;51.366;12.350;2023-09-08T07:39:32;100769.44;;;18.35;100.00
66681;BME280;53575;51.366;12.350;2023-09-08T07:41:58;100779.00;;;18.39;100.00
66681;BME280;53575;51.366;12.350;2023-09-08T07:44:24;100779.66;;;18.47;100.00
66681;BME280;53575;51.366;12.350;2023-09-08T07:46:49;100770.56;;;18.56;100.00
66681;BME280;53575;51.366;12.350;2023-09-08T07:49:17;100774.75;;;18.63;100.00
66681;BME280;53575;51.366;12.350;2023-09-08T07:51:46;100782.47;;;18.69;99.53
66681;BME280;53575;51.366;12.350;2023-09-08T07:54:11;100771.63;;;18.78;99.01
66681;BME280;53575;51.366;12.350;2023-09-08T07:56:37;100771.22;;;18.90;99.41
66681;BME280;53575;51.366;12.350;2023-09-08T07:59:02;100767.38;;;18.99;98.42
66681;BME280;53575;51.366;12.350;2023-09-08T08:01:28;100768.00;;;19.07;98.59
66681;BME280;53575;51.366;12.350;2023-09-08T08:03:53;100761.53;;;19.16;98.12
66681;BME280;53575;51.366;12.350;2023-09-08T08:06:18;100768.13;;;19.29;97.18
66681;BME280;53575;51.366;12.350;2023-09-08T08:08:44;100765.00;;;19.43;95.84
66681;BME280;53575;51.366;12.350;2023-09-08T08:11:14;100769.94;;;19.54;94.71
66681;BME280;53575;51.366;12.350;2023-09-08T08:13:40;100771.16;;;19.68;93.83
66681;BME280;53575;51.366;12.350;2023-09-08T08:16:05;100765.44;;;19.81;94.18
66681;BME280;53575;51.366;12.350;2023-09-08T08:18:31;100767.66;;;19.91;92.53
66681;BME280;53575;51.366;12.350;2023-09-08T08:20:57;100776.06;;;20.03;91.83
66681;BME280;53575;51.366;12.350;2023-09-08T08:23:22;100770.56;;;20.09;91.73
66681;BME280;53575;51.366;12.350;2023-09-08T08:25:48;100765.88;;;20.15;92.03
66681;BME280;53575;51.366;12.350;2023-09-08T08:28:14;100769.09;;;20.24;91.92
66681;BME280;53575;51.366;12.350;2023-09-08T08:30:39;100761.78;;;20.30;90.44
66681;BME280;53575;51.366;12.350;2023-09-08T08:33:05;100764.72;;;20.44;88.64
66681;BME280;53575;51.366;12.350;2023-09-08T08:35:30;100761.78;;;20.52;89.61
66681;BME280;53575;51.366;12.350;2023-09-08T08:37:58;100760.59;;;20.61;90.00
66681;BME280;53575;51.366;12.350;2023-09-08T08:40:24;100756.56;;;20.73;88.08
66681;BME280;53575;51.366;12.350;2023-09-08T08:42:55;100757.72;;;20.87;87.51
66681;BME280;53575;51.366;12.350;2023-09-08T08:45:23;100756.69;;;20.90;88.38
66681;BME280;53575;51.366;12.350;2023-09-08T08:47:50;100752.00;;;20.97;89.32
66681;BME280;53575;51.366;12.350;2023-09-08T08:50:16;100754.41;;;21.03;86.70
66681;BME280;53575;51.366;12.350;2023-09-08T08:52:42;100750.03;;;21.22;86.42
66681;BME280;53575;51.366;12.350;2023-09-08T08:55:08;100758.59;;;21.29;85.89
66681;BME280;53575;51.366;12.350;2023-09-08T08:57:37;100752.06;;;21.37;84.78
66681;BME280;53575;51.366;12.350;2023-09-08T09:00:06;100753.34;;;21.48;83.77
66681;BME280;53575;51.366;12.350;2023-09-08T09:02:36;100751.22;;;21.56;84.35
66681;BME280;53575;51.366;12.350;2023-09-08T09:05:01;100752.75;;;21.61;84.13
66681;BME280;53575;51.366;12.350;2023-09-08T09:07:27;100750.47;;;21.73;82.79
66681;BME280;53575;51.366;12.350;2023-09-08T09:09:53;100748.09;;;21.85;82.86
66681;BME280;53575;51.366;12.350;2023-09-08T09:12:19;100749.34;;;21.97;82.60
66681;BME280;53575;51.366;12.350;2023-09-08T09:14:47;100745.31;;;22.07;81.94
66681;BME280;53575;51.366;12.350;2023-09-08T09:17:13;100748.00;;;22.26;79.57
66681;BME280;53575;51.366;12.350;2023-09-08T09:19:39;100741.22;;;22.38;78.12
66681;BME280;53575;51.366;12.350;2023-09-08T09:22:05;100744.09;;;22.52;78.42
66681;BME280;53575;51.366;12.350;2023-09-08T09:27:00;100740.28;;;22.75;75.21
66681;BME280;53575;51.366;12.350;2023-09-08T09:29:27;100739.81;;;22.84;75.32
66681;BME280;53575;51.366;12.350;2023-09-08T09:32:01;100740.13;;;22.97;73.07
66681;BME280;53575;51.366;12.350;2023-09-08T09:34:27;100739.72;;;23.05;73.74
66681;BME280;53575;51.366;12.350;2023-09-08T09:36:53;100733.81;;;23.16;72.97
66681;BME280;53575;51.366;12.350;2023-09-08T09:39:20;100730.94;;;23.20;72.31
66681;BME280;53575;51.366;12.350;2023-09-08T09:41:47;100734.50;;;23.37;71.36
66681;BME280;53575;51.366;12.350;2023-09-08T09:44:12;100735.81;;;23.45;70.86
66681;BME280;53575;51.366;12.350;2023-09-08T09:46:38;100731.78;;;23.54;69.91
66681;BME280;53575;51.366;12.350;2023-09-08T09:49:10;100724.56;;;23.73;69.46
66681;BME280;53575;51.366;12.350;2023-09-08T09:51:40;100725.19;;;23.78;69.02
66681;BME280;53575;51.366;12.350;2023-09-08T09:54:06;100726.56;;;23.86;70.46
66681;BME280;53575;51.366;12.350;2023-09-08T09:56:32;100730.63;;;23.93;69.70
66681;BME280;53575;51.366;12.350;2023-09-08T09:59:00;100721.69;;;23.94;67.24
66681;BME280;53575;51.366;12.350;2023-09-08T10:01:27;100717.38;;;24.07;66.06
66681;BME280;53575;51.366;12.350;2023-09-08T10:03:53;100721.25;;;24.17;64.32
66681;BME280;53575;51.366;12.350;2023-09-08T10:06:19;100719.44;;;24.18;66.09
66681;BME280;53575;51.366;12.350;2023-09-08T10:08:45;100724.44;;;24.24;66.45
66681;BME280;53575;51.366;12.350;2023-09-08T10:11:12;100718.56;;;24.33;66.46
66681;BME280;53575;51.366;12.350;2023-09-08T10:13:42;100713.22;;;24.49;62.96
66681;BME280;53575;51.366;12.350;2023-09-08T10:16:13;100713.91;;;24.52;65.46
66681;BME280;53575;51.366;12.350;2023-09-08T10:18:44;100711.66;;;24.61;64.50
66681;BME280;53575;51.366;12.350;2023-09-08T10:21:11;100708.53;;;24.68;65.47
66681;BME280;53575;51.366;12.350;2023-09-08T10:23:44;100707.84;;;24.80;61.49
66681;BME280;53575;51.366;12.350;2023-09-08T10:26:15;100704.31;;;24.94;60.54
66681;BME280;53575;51.366;12.350;2023-09-08T10:28:41;100698.53;;;25.02;59.90
66681;BME280;53575;51.366;12.350;2023-09-08T10:31:08;100708.72;;;25.11;59.49
66681;BME280;53575;51.366;12.350;2023-09-08T10:33:35;100709.09;;;25.19;58.41
66681;BME280;53575;51.366;12.350;2023-09-08T10:36:02;100708.53;;;25.28;56.97
66681;BME280;53575;51.366;12.350;2023-09-08T10:38:33;100707.78;;;25.41;55.46
66681;BME280;53575;51.366;12.350;2023-09-08T10:43:56;100702.91;;;25.62;54.96
66681;BME280;53575;51.366;12.350;2023-09-08T10:46:24;100701.28;;;25.73;54.76
66681;BME280;53575;51.366;12.350;2023-09-08T10:48:53;100703.41;;;25.83;53.80
66681;BME280;53575;51.366;12.350;2023-09-08T10:51:18;100703.03;;;25.89;54.78
66681;BME280;53575;51.366;12.350;2023-09-08T10:53:46;100691.25;;;25.91;53.52
66681;BME280;53575;51.366;12.350;2023-09-08T10:56:13;100691.50;;;26.01;50.25
66681;BME280;53575;51.366;12.350;2023-09-08T10:58:38;100689.84;;;26.13;48.92
66681;BME280;53575;51.366;12.350;2023-09-08T11:01:06;100692.16;;;26.19;49.29
66681;BME280;53575;51.366;12.350;2023-09-08T11:06:04;100685.47;;;26.39;48.10
66681;BME280;53575;51.366;12.350;2023-09-08T11:08:30;100682.47;;;26.43;48.75
66681;BME280;53575;51.366;12.350;2023-09-08T11:10:56;100682.31;;;26.46;47.95
66681;BME280;53575;51.366;12.350;2023-09-08T11:13:21;100684.38;;;26.56;47.74
66681;BME280;53575;51.366;12.350;2023-09-08T11:15:47;100680.22;;;26.64;48.51
66681;BME280;53575;51.366;12.350;2023-09-08T11:18:13;100687.44;;;26.77;47.32
66681;BME280;53575;51.366;12.350;2023-09-08T11:20:38;100678.47;;;26.90;46.60
66681;BME280;53575;51.366;12.350;2023-09-08T11:23:04;100679.72;;;26.97;45.38
66681;BME280;53575;51.366;12.350;2023-09-08T11:25:31;100680.53;;;27.12;45.95
66681;BME280;53575;51.366;12.350;2023-09-08T11:27:58;100678.16;;;27.20;44.85
66681;BME280;53575;51.366;12.350;2023-09-08T11:30:25;100673.69;;;27.34;43.71
66681;BME280;53575;51.366;12.350;2023-09-08T11:32:51;100666.91;;;27.41;45.24
66681;BME280;53575;51.366;12.350;2023-09-08T11:35:16;100664.53;;;27.49;44.43
66681;BME280;53575;51.366;12.350;2023-09-08T11:37:46;100665.69;;;27.58;42.35
66681;BME280;53575;51.366;12.350;2023-09-08T11:40:11;100667.41;;;27.59;43.77
66681;BME280;53575;51.366;12.350;2023-09-08T11:42:38;100661.06;;;27.73;41.95
66681;BME280;53575;51.366;12.350;2023-09-08T11:45:14;100664.19;;;27.79;42.47
66681;BME280;53575;51.366;12.350;2023-09-08T11:47:43;100660.72;;;27.90;42.58
66681;BME280;53575;51.366;12.350;2023-09-08T11:50:10;100660.31;;;28.07;40.94
66681;BME280;53575;51.366;12.350;2023-09-08T11:52:47;100661.47;;;28.16;41.71
66681;BME280;53575;51.366;12.350;2023-09-08T11:55:14;100662.72;;;28.23;42.27
66681;BME280;53575;51.366;12.350;2023-09-08T11:57:40;100662.78;;;28.34;40.36
66681;BME280;53575;51.366;12.350;2023-09-08T12:00:07;100659.56;;;28.42;39.72
66681;BME280;53575;51.366;12.350;2023-09-08T12:02:36;100651.75;;;28.39;41.16
66681;BME280;53575;51.366;12.350;2023-09-08T12:05:03;100658.84;;;28.40;42.86
66681;BME280;53575;51.366;12.350;2023-09-08T12:07:29;100644.81;;;28.48;42.45
66681;BME280;53575;51.366;12.350;2023-09-08T12:09:54;100643.25;;;28.56;40.62
66681;BME280;53575;51.366;12.350;2023-09-08T12:12:20;100639.13;;;28.63;42.43
66681;BME280;53575;51.366;12.350;2023-09-08T12:14:45;100643.69;;;28.74;40.64
66681;BME280;53575;51.366;12.350;2023-09-08T12:17:11;100650.78;;;28.86;40.38
66681;BME280;53575;51.366;12.350;2023-09-08T12:19:39;100648.53;;;29.04;38.28
66681;BME280;53575;51.366;12.350;2023-09-08T12:22:06;100652.47;;;29.23;39.25
66681;BME280;53575;51.366;12.350;2023-09-08T12:27:22;100631.06;;;29.55;36.65
66681;BME280;53575;51.366;12.350;2023-09-08T12:29:54;100632.66;;;29.69;36.74
66681;BME280;53575;51.366;12.350;2023-09-08T12:32:20;100632.41;;;29.72;35.81
66681;BME280;53575;51.366;12.350;2023-09-08T12:34:46;100628.00;;;29.82;37.09
66681;BME280;53575;51.366;12.350;2023-09-08T12:37:11;100626.25;;;29.92;36.96
66681;BME280;53575;51.366;12.350;2023-09-08T12:39:38;100611.75;;;30.04;36.41
66681;BME280;53575;51.366;12.350;2023-09-08T12:42:04;100625.94;;;30.18;35.73
66681;BME280;53575;51.366;12.350;2023-09-08T12:44:29;100613.22;;;30.20;35.69